Terminal Aerodrome Forecast
Issued by NWS

Home | Current Version | Previous Version | Text Only | Print | Product List | Glossary On
Versions: 1 2 3 4 5 6 7 8 9 10 11 12 13 14 15 16 17 18 19 20 21 22 23 24
777
FTUS41 KPHI 172353 AAB
TAFMIV
TAF AMD
KMIV 172353Z 1800/1824 18005KT P6SM VCSH BKN050
     FM180200 18005KT P6SM BKN050
     FM180900 18005KT P6SM BKN040 PROB30 1809/1812 4SM -TSRA
      OVC025CB
     FM181200 19006KT P6SM BKN010 PROB30 1812/1813 4SM -TSRA
      OVC003CB
     FM182000 18009KT P6SM SHRA VCTS OVC130CB=

USA.gov is the U.S. government's official web portal to all federal, state and local government web resources and services.